Time,TemperatureF,DewpointF,PressureIn,WindDirection,WindDirectionDegrees,WindSpeedMPH,WindSpeedGustMPH,Humidity,HourlyPrecipIn,Conditions,Clouds,dailyrainin,SoftwareType,DateUTC
2013-11-21 00:12:00,52.0,47.0,29.94,SE,135,0.0,1.0,83,0.00,,,0.00,,2013-11-21 06:12:00,
2013-11-21 00:22:00,52.0,47.0,29.94,SE,135,0.0,1.0,83,0.00,,,0.00,,2013-11-21 06:22:00,
2013-11-21 00:43:00,51.0,46.0,29.95,SE,131,0.0,1.0,84,0.00,,,0.00,,2013-11-21 06:43:00,
2013-11-21 00:52:00,51.0,46.0,29.95,SE,131,0.0,1.0,84,0.00,,,0.00,,2013-11-21 06:52:00,
2013-11-21 01:02:00,51.0,46.0,29.95,SE,131,0.0,1.0,84,0.00,,,0.00,,2013-11-21 07:02:00,
2013-11-21 01:11:00,51.0,46.0,29.95,SE,131,0.0,1.0,84,0.00,,,0.00,,2013-11-21 07:11:00,
2013-11-21 01:52:00,52.0,47.0,29.96,SSW,208,0.0,1.0,83,0.00,,,0.00,,2013-11-21 07:52:00,
2013-11-21 02:12:00,52.0,47.0,29.96,SW,231,0.0,1.0,83,0.00,,,0.00,,2013-11-21 08:12:00,
2013-11-21 02:21:00,52.0,47.0,29.96,SW,231,0.0,1.0,83,0.00,,,0.00,,2013-11-21 08:21:00,
2013-11-21 02:31:00,49.0,44.0,29.98,North,1,0.0,1.0,84,0.00,,,0.00,,2013-11-21 08:31:00,
2013-11-21 02:32:00,52.0,47.0,29.96,SW,231,0.0,1.0,83,0.00,,,0.00,,2013-11-21 08:32:00,
2013-11-21 02:52:00,49.0,44.0,29.98,North,1,0.0,1.0,84,0.00,,,0.00,,2013-11-21 08:52:00,
2013-11-21 03:02:00,49.0,44.0,29.98,North,1,0.0,1.0,84,0.00,,,0.00,,2013-11-21 09:02:00,
2013-11-21 03:11:00,49.0,44.0,29.98,North,1,0.0,1.0,84,0.00,,,0.00,,2013-11-21 09:11:00,
2013-11-21 03:22:00,49.0,44.0,29.98,North,1,0.0,1.0,84,0.00,,,0.00,,2013-11-21 09:22:00,
2013-11-21 03:53:00,48.0,44.0,30.01,NNW,344,2.0,11.0,87,0.00,,,0.00,,2013-11-21 09:53:00,
2013-11-21 04:13:00,48.0,44.0,30.02,NW,325,2.0,8.0,87,0.00,,,0.00,,2013-11-21 10:13:00,
2013-11-21 04:23:00,48.0,44.0,30.02,NW,325,2.0,8.0,87,0.00,,,0.00,,2013-11-21 10:23:00,
2013-11-21 04:31:00,48.0,44.0,30.06,NW,325,2.0,2.0,87,0.00,,,0.00,,2013-11-21 10:31:00,
2013-11-21 04:53:00,48.0,44.0,30.06,NW,325,2.0,2.0,87,0.00,,,0.00,,2013-11-21 10:53:00,
2013-11-21 05:03:00,48.0,44.0,30.06,NW,325,2.0,2.0,87,0.00,,,0.00,,2013-11-21 11:03:00,
2013-11-21 05:12:00,48.0,44.0,30.06,NW,325,2.0,2.0,87,0.00,,,0.00,,2013-11-21 11:12:00,
2013-11-21 05:22:00,48.0,44.0,30.06,NW,325,2.0,2.0,87,0.00,,,0.00,,2013-11-21 11:22:00,
2013-11-21 09:53:00,32.0,27.0,30.21,NNW,329,3.0,15.0,83,0.00,,,0.00,,2013-11-21 15:53:00,
2013-11-21 10:13:00,32.0,27.0,30.22,NE,36,8.0,14.0,83,0.00,,,0.00,,2013-11-21 16:13:00,
2013-11-21 10:23:00,32.0,27.0,30.22,NE,36,8.0,14.0,83,0.00,,,0.00,,2013-11-21 16:23:00,
2013-11-21 10:53:00,31.0,26.0,30.24,NE,38,2.0,15.0,81,0.00,,,0.00,,2013-11-21 16:53:00,
2013-11-21 11:22:00,31.0,26.0,30.25,WNW,288,3.0,12.0,83,0.00,,,0.00,,2013-11-21 17:22:00,
2013-11-21 11:42:00,30.0,25.0,30.24,ENE,69,6.0,14.0,82,0.00,,,0.00,,2013-11-21 17:42:00,
2013-11-21 11:52:00,30.0,25.0,30.25,WNW,301,5.0,13.0,83,0.00,,,0.00,,2013-11-21 17:52:00,
2013-11-21 12:12:00,30.0,26.0,30.26,North,360,5.0,14.0,85,0.00,,,0.00,,2013-11-21 18:12:00,
2013-11-21 12:22:00,30.0,26.0,30.26,North,360,5.0,14.0,85,0.00,,,0.00,,2013-11-21 18:22:00,
2013-11-21 12:52:00,29.0,26.0,30.24,West,281,6.0,14.0,89,0.00,,,0.00,,2013-11-21 18:52:00,
2013-11-21 13:12:00,29.0,26.0,30.25,NNE,19,6.0,13.0,90,0.00,,,0.00,,2013-11-21 19:12:00,
2013-11-21 13:22:00,29.0,26.0,30.25,NNE,19,6.0,13.0,90,0.00,,,0.00,,2013-11-21 19:22:00,
2013-11-21 13:52:00,28.0,26.0,30.25,North,7,3.0,11.0,91,0.00,,,0.00,,2013-11-21 19:52:00,
2013-11-21 14:02:00,28.0,26.0,30.25,North,7,3.0,11.0,91,0.00,,,0.00,,2013-11-21 20:02:00,
2013-11-21 14:12:00,28.0,26.0,30.25,North,7,3.0,11.0,91,0.00,,,0.00,,2013-11-21 20:12:00,
2013-11-21 14:21:00,28.0,26.0,30.25,North,7,3.0,11.0,91,0.00,,,0.00,,2013-11-21 20:21:00,
2013-11-21 14:52:00,28.0,25.0,30.27,NW,314,3.0,13.0,90,0.00,,,0.00,,2013-11-21 20:52:00,
2013-11-21 15:11:00,28.0,25.0,30.29,NW,314,4.0,12.0,90,0.00,,,0.00,,2013-11-21 21:11:00,
2013-11-21 15:22:00,28.0,25.0,30.29,NW,314,4.0,12.0,90,0.00,,,0.00,,2013-11-21 21:22:00,
2013-11-21 15:34:00,28.0,25.0,30.29,NW,314,4.0,12.0,90,0.00,,,0.00,,2013-11-21 21:34:00,
2013-11-21 15:43:00,28.0,25.0,30.29,NW,314,4.0,12.0,90,0.00,,,0.00,,2013-11-21 21:43:00,
2013-11-21 16:23:00,27.0,24.0,30.34,NNE,13,9.0,14.0,90,0.00,,,0.00,,2013-11-21 22:23:00,
2013-11-21 16:33:00,27.0,24.0,30.34,NNE,13,9.0,14.0,90,0.00,,,0.00,,2013-11-21 22:33:00,
2013-11-21 16:43:00,27.0,24.0,30.34,NNE,13,9.0,14.0,90,0.00,,,0.00,,2013-11-21 22:43:00,
2013-11-21 16:53:00,27.0,24.0,30.34,NNE,13,9.0,14.0,90,0.00,,,0.00,,2013-11-21 22:53:00,
2013-11-21 17:12:00,27.0,23.0,30.39,NNW,342,4.0,18.0,86,0.00,,,0.00,,2013-11-21 23:12:00,
2013-11-21 17:22:00,27.0,23.0,30.39,NNW,342,4.0,18.0,86,0.00,,,0.00,,2013-11-21 23:22:00,
2013-11-21 17:31:00,26.0,22.0,30.40,NW,312,5.0,16.0,83,0.00,,,0.00,,2013-11-21 23:31:00,
2013-11-21 17:33:00,27.0,23.0,30.39,NNW,342,4.0,18.0,86,0.00,,,0.00,,2013-11-21 23:33:00,
2013-11-21 17:53:00,26.0,22.0,30.40,NW,312,5.0,16.0,83,0.00,,,0.00,,2013-11-21 23:53:00,
2013-11-21 18:02:00,26.0,22.0,30.40,NW,312,5.0,16.0,83,0.00,,,0.00,,2013-11-22 00:02:00,
2013-11-21 18:11:00,26.0,22.0,30.40,NW,312,5.0,16.0,83,0.00,,,0.00,,2013-11-22 00:11:00,
2013-11-21 18:22:00,26.0,22.0,30.40,NW,312,5.0,16.0,83,0.00,,,0.00,,2013-11-22 00:22:00,
2013-11-21 18:52:00,26.0,22.0,30.45,NW,318,7.0,14.0,84,0.00,,,0.00,,2013-11-22 00:52:00,
2013-11-21 19:01:00,26.0,21.0,30.46,NW,312,2.0,12.0,82,0.00,,,0.00,,2013-11-22 01:01:00,
2013-11-21 19:22:00,26.0,21.0,30.46,NW,312,2.0,12.0,82,0.00,,,0.00,,2013-11-22 01:22:00,
2013-11-21 19:32:00,26.0,21.0,30.46,NW,312,2.0,12.0,82,0.00,,,0.00,,2013-11-22 01:32:00,
2013-11-21 19:42:00,26.0,21.0,30.46,NW,312,2.0,12.0,82,0.00,,,0.00,,2013-11-22 01:42:00,
2013-11-21 19:52:00,26.0,21.0,30.46,NW,312,2.0,12.0,82,0.00,,,0.00,,2013-11-22 01:52:00,
2013-11-21 20:22:00,26.0,20.0,30.47,NW,317,8.0,18.0,79,0.00,,,0.00,,2013-11-22 02:22:00,
2013-11-21 20:42:00,26.0,21.0,30.48,NNW,327,6.0,14.0,80,0.00,,,0.00,,2013-11-22 02:42:00,
2013-11-21 20:53:00,26.0,21.0,30.48,NNW,327,6.0,14.0,80,0.00,,,0.00,,2013-11-22 02:53:00,
2013-11-21 21:22:00,25.0,19.0,30.50,WNW,298,2.0,15.0,79,0.00,,,0.00,,2013-11-22 03:22:00,
2013-11-21 21:54:00,25.0,19.0,30.53,WNW,302,10.0,15.0,79,0.00,,,0.00,,2013-11-22 03:54:00,
2013-11-21 22:03:00,25.0,19.0,30.53,WNW,302,10.0,15.0,79,0.00,,,0.00,,2013-11-22 04:03:00,
2013-11-21 22:13:00,25.0,19.0,30.53,WNW,302,10.0,15.0,79,0.00,,,0.00,,2013-11-22 04:13:00,
2013-11-21 22:23:00,25.0,19.0,30.53,WNW,302,10.0,15.0,79,0.00,,,0.00,,2013-11-22 04:23:00,
2013-11-21 22:43:00,24.0,19.0,30.55,North,5,8.0,16.0,80,0.00,,,0.00,,2013-11-22 04:43:00,
2013-11-21 22:53:00,24.0,19.0,30.55,WSW,242,11.0,15.0,81,0.00,,,0.00,,2013-11-22 04:53:00,
2013-11-21 23:02:00,24.0,19.0,30.55,WSW,242,11.0,15.0,81,0.00,,,0.00,,2013-11-22 05:02:00,
2013-11-21 23:22:00,24.0,19.0,30.57,North,8,9.0,16.0,82,0.00,,,0.00,,2013-11-22 05:22:00,
2013-11-21 23:31:00,24.0,19.0,30.58,WSW,239,6.0,14.0,82,0.00,,,0.00,,2013-11-22 05:31:00,
2013-11-21 23:53:00,24.0,19.0,30.58,WSW,239,6.0,14.0,82,0.00,,,0.00,,2013-11-22 05:53:00,